LFOEKPVC

Guest
Details From LFOE - Fauville
To KPVC - Provincetown Muni
Flight Number -
Tags Decoded
Created
Modified
Stats Distance 2,978 nm / 5,515 km
Max Altitude 42,000 ft / 12,802 m
Waypoints 7
Social Downloads 2
Likes 0
Share VATSIM

Download

Looking for another format? Having issues loading an existing format? Contact us
Advertisement - Login to hide

Notes

Decoded

Route

EVX SENLO JSY LIZAD SHA TUSKY PLYMM

ID Type Via Altitude Latitude Longitude Leg Dist Tot Dist Heading (true) Name
O EVX VOR - 0 ft / 0 m 49.03169˚ 1.22086˚ - 0 nm - EVREUX FAUVILLE VORTAC
SENLO FIX - 42,000 ft / 12,802 m 49.08333˚ -1.17833˚ 94 nm 94 nm 273° / 271° -
JSY VOR - 42,000 ft / 12,802 m 49.22111˚ -2.04611˚ 35 nm 129 nm 284° / 283° JERSEY VOR-DME
LIZAD FIX - 42,000 ft / 12,802 m 49.59028˚ -4.33028˚ 91 nm 221 nm 285° / 283° -
SHA VOR - 42,000 ft / 12,802 m 52.72101˚ -8.88521˚ 254 nm 475 nm 319° / 316° SHANNON VOR-DME
TUSKY FIX - 42,000 ft / 12,802 m 43.56500˚ -67.00000˚ 2325 nm 2801 nm 280° / 235° -
O PLYMM FIX - 0 ft / 0 m 42.04375˚ -70.42691˚ 176 nm 2977 nm 240° / 238° -

Altitude Profile

Advertisement - Login to hide

Weather


0- 5 10 15 20 25 30 35+ Temperature / ° C

Clouds and Precipitation
Forecast for 2017-12-11 18:00 UTC. Updated 2 hours ago

Ground ~20,000 ft ~40,000 ft Winds

LFOE

Details ICAO LFOE
Name FAUVILLE
Region France
Timezone Europe/Paris (UTC+1.0)
Stats Elevation 464 ft / 141 m (AMSL)
Location 49.028669° 1.219866°
Runways 1
Magnetic Variation 0.224° E

METAR

LFOE 111900Z AUTO 31009KT 9999 -RA SCT010 BKN015 OVC021 03/02 Q0989

Decode

TAF

TAF LFOE 111400Z 1115/1215 26015G30KT 9999 BKN014 TEMPO 1115/1121 36025G40KT 2000 SHRASN BKN006 BKN015TCU PROB40 TEMPO 1115/1121 36030G45KT 1500 RASN BECMG 1122/1124 29012KT BKN018

Decode

Departure Runways

ID Width Length Bearing (true) Bearing (mag) Surface Threshold Offset Overrun Length
04 148 ft / 45 m 9,836 ft / 2,998 m 39.78° 39.56° Asphalt 0 ft / 0 m 0 ft / 0 m
22 148 ft / 45 m 9,836 ft / 2,998 m 219.80° 219.58° Asphalt 0 ft / 0 m 0 ft / 0 m

KPVC

Details ICAO KPVC (PVC)
Name Provincetown Muni
Region United States
Timezone America/New_York (UTC-5.0)
Stats Elevation 8 ft / 2 m (AMSL)
Location 42.072281° -70.220737°
Runways 1
Magnetic Variation 14.906° W

METAR

KPVC 111856Z AUTO 29008G17KT 10SM CLR 04/M04 A2996 RMK AO2 SLP145 T00441044

Decode

TAF

Not found

Destination Runways

ID Width Length Bearing (true) Bearing (mag) Surface Threshold Offset Overrun Length
07 100 ft / 30 m 3,495 ft / 1,065 m 59.23° 74.14° Asphalt 0 ft / 0 m 0 ft / 0 m
25 100 ft / 30 m 3,495 ft / 1,065 m 239.23° 254.14° Asphalt 0 ft / 0 m 0 ft / 0 m

Approach Navaids

Runway Type Ident Frequency Range Bearing (true) Bearing (mag) Slope Elevation
07 Localiser IVQO 111.10 MHz 18 nm / 33 km 59.22° 74.13° - 8 ft / 2 m (AMSL)
07 Glidescope IVQO 111.10 MHz 10 nm / 19 km 59.23° 74.14° 3.00° 9 ft / 3 m (AMSL)
07 DME IVQO 111.10 MHz 18 nm / 33 km - - - 8 ft / 2 m (AMSL)